Time;durP1;ratioP1;P1;durP2;ratioP2;P2;SDS_P1;SDS_P2;PMS_P1;PMS_P2;Temp;Humidity;BMP_temperature;BMP_pressure;BME280_temperature;BME280_humidity;BME280_pressure;Samples;Min_cycle;Max_cycle;Signal;HPM_P1;HPM_P2
2022/05/18 00:01:24;;;;;;;1.80;1.63;;;;;;;26.39;56.95;100791.06;4977545;28;19929;-51
2022/05/18 00:04:07;;;;;;;;;;;;;;;26.35;57.11;100795.34;4977864;28;20133;-52
2022/05/18 00:06:51;;;;;;;1.92;1.77;;;;;;;26.38;57.21;100797.59;4977084;28;20020;-50
2022/05/18 00:09:35;;;;;;;;;;;;;;;26.33;57.01;100794.75;4977767;28;20089;-53
2022/05/18 00:12:19;;;;;;;1.70;1.45;;;;;;;26.37;57.15;100804.13;4977317;28;19921;-50
2022/05/18 00:15:03;;;;;;;2.33;1.67;;;;;;;26.38;57.00;100800.34;4977081;28;20054;-52
2022/05/18 00:17:48;;;;;;;1.58;1.48;;;;;;;26.37;57.13;100795.94;4977252;28;20053;-52
2022/05/18 00:20:32;;;;;;;1.65;1.55;;;;;;;26.38;57.01;100800.34;4962234;28;20101;-52
2022/05/18 00:23:16;;;;;;;1.90;1.80;;;;;;;26.37;57.26;100807.72;4976772;28;20419;-54
2022/05/18 00:26:00;;;;;;;;;;;;;;;26.30;57.08;100803.38;4977644;28;20054;-51
2022/05/18 00:28:44;;;;;;;1.65;1.55;;;;;;;26.34;57.29;100801.88;4976760;28;19921;-49
2022/05/18 00:31:29;;;;;;;1.77;1.67;;;;;;;26.35;57.24;100800.81;4976851;28;20113;-51
2022/05/18 00:34:13;;;;;;;;;;;;;;;26.29;57.29;100799.84;4977340;28;20077;-50
2022/05/18 00:36:57;;;;;;;;;;;;;;;26.26;57.30;100792.09;4977590;28;19961;-53
2022/05/18 00:39:41;;;;;;;2.58;1.70;;;;;;;26.31;57.37;100805.06;4976886;28;20025;-53
2022/05/18 00:42:26;;;;;;;1.80;1.70;;;;;;;26.31;57.31;100802.31;4976408;28;20053;-51
2022/05/18 00:45:11;;;;;;;1.83;1.73;;;;;;;26.32;57.21;100803.97;4976475;28;20418;-54
2022/05/18 00:47:56;;;;;;;1.70;1.60;;;;;;;26.31;57.39;100819.56;4976623;28;20089;-51
2022/05/18 00:50:41;;;;;;;1.90;1.70;;;;;;;26.31;57.31;100816.00;4976621;28;20509;-51
2022/05/18 00:53:28;;;;;;;2.38;1.55;;;;;;;26.30;57.35;100817.06;4976519;28;20133;-52
2022/05/18 00:56:16;;;;;;;1.73;1.63;;;;;;;26.32;57.50;100812.19;4962054;28;20054;-52
2022/05/18 00:59:10;;;;;;;2.90;1.45;;;;;;;26.30;57.44;100811.59;4975644;28;20116;-51
2022/05/18 01:01:55;;;;;;;1.80;1.70;;;;;;;26.28;57.54;100809.09;4961473;28;20045;-53
2022/05/18 01:04:40;;;;;;;2.33;1.50;;;;;;;26.29;57.37;100809.94;4961574;28;20045;-53
2022/05/18 01:07:28;;;;;;;1.65;1.55;;;;;;;26.29;57.43;100818.97;4961313;28;20502;-50
2022/05/18 01:10:11;;;;;;;1.88;1.70;;;;;;;26.28;57.48;100809.09;4961577;28;20190;-52
2022/05/18 01:12:57;;;;;;;1.60;1.50;;;;;;;26.28;57.53;100811.00;4976107;28;20407;-51
2022/05/18 01:15:41;;;;;;;1.63;1.52;;;;;;;26.27;57.50;100798.41;4961599;28;20497;-52
2022/05/18 01:18:25;;;;;;;;;;;;;;;26.21;57.66;100802.06;4976550;28;20101;-51
2022/05/18 01:21:12;;;;;;;1.65;1.55;;;;;;;26.24;57.58;100798.88;4961409;28;20425;-52
2022/05/18 01:24:01;;;;;;;1.58;1.48;;;;;;;26.24;57.47;100798.88;4960993;28;20130;-52
2022/05/18 01:26:47;;;;;;;1.70;1.60;;;;;;;26.26;57.55;100807.66;4960941;28;20517;-51
2022/05/18 01:29:31;;;;;;;1.55;1.45;;;;;;;26.24;57.69;100812.53;4961126;28;20050;-51
2022/05/18 01:32:16;;;;;;;1.58;1.45;;;;;;;26.24;57.61;100807.06;4962082;28;20057;-52
2022/05/18 01:35:00;;;;;;;2.08;1.70;;;;;;;26.22;57.70;100814.66;4975825;28;20142;-52
2022/05/18 01:37:43;;;;;;;1.92;1.60;;;;;;;26.22;57.60;100811.91;4975730;28;20118;-52
2022/05/18 01:40:39;;;;;;;1.63;1.52;;;;;;;26.22;57.52;100820.13;4975728;28;20573;-50
2022/05/18 01:43:29;;;;;;;1.75;1.40;;;;;;;26.21;57.62;100823.91;4960946;28;20124;-52
2022/05/18 01:46:15;;;;;;;1.60;1.50;;;;;;;26.20;57.50;100816.78;4960856;28;20049;-54
2022/05/18 01:48:59;;;;;;;1.80;1.70;;;;;;;26.20;57.60;100814.91;4960686;28;20093;-51
2022/05/18 01:51:47;;;;;;;2.10;1.80;;;;;;;26.20;57.68;100820.38;4975162;28;20053;-50
2022/05/18 01:54:40;;;;;;;1.95;1.45;;;;;;;26.20;57.43;100822.25;4960837;28;20104;-51
2022/05/18 01:57:24;;;;;;;1.77;1.63;;;;;;;26.18;57.50;100818.91;4975112;28;20090;-51
2022/05/18 02:00:09;;;;;;;;;;;;;;;26.11;57.51;100820.91;4975765;28;20097;-52
2022/05/18 02:02:53;;;;;;;1.58;1.48;;;;;;;26.15;57.55;100819.41;4960433;28;19984;-50
2022/05/18 02:05:37;;;;;;;;;;;;;;;26.09;57.70;100818.41;4960919;28;20113;-56
2022/05/18 02:08:22;;;;;;;1.60;1.50;;;;;;;26.12;57.69;100817.13;4960318;28;20286;-55
2022/05/18 02:11:09;;;;;;;3.05;1.60;;;;;;;26.14;57.62;100823.19;4960216;28;20053;-52
2022/05/18 02:13:53;;;;;;;2.60;1.70;;;;;;;26.13;57.66;100824.25;4975028;28;20053;-52
2022/05/18 02:16:37;;;;;;;2.00;1.63;;;;;;;26.12;58.03;100819.88;4975096;28;20097;-52
2022/05/18 02:19:21;;;;;;;1.80;1.60;;;;;;;26.12;57.71;100819.88;4960130;28;20510;-49
2022/05/18 02:22:05;;;;;;;1.70;1.48;;;;;;;26.11;57.72;100816.28;4974678;28;20117;-50
2022/05/18 02:24:49;;;;;;;1.83;1.48;;;;;;;26.12;57.71;100823.41;4974936;28;20152;-52
2022/05/18 02:27:34;;;;;;;1.60;1.42;;;;;;;26.10;57.91;100821.97;4974591;28;20102;-51
2022/05/18 02:30:18;;;;;;;1.40;1.30;;;;;;;26.09;57.53;100814.84;4960024;28;20546;-50
2022/05/18 02:33:03;;;;;;;1.65;1.55;;;;;;;26.09;57.78;100821.16;4974536;28;20058;-52
2022/05/18 02:35:46;;;;;;;;;;;;;;;26.03;57.80;100818.53;4960657;28;20176;-53
2022/05/18 02:38:30;;;;;;;1.73;1.48;;;;;;;26.06;57.87;100820.78;4974869;28;19921;-52
2022/05/18 02:41:14;;;;;;;;;;;;;;;26.01;57.88;100828.81;4960579;28;20074;-55
2022/05/18 02:43:59;;;;;;;2.08;1.60;;;;;;;26.04;57.98;100823.72;4974450;28;20021;-50
2022/05/18 02:46:43;;;;;;;1.58;1.40;;;;;;;26.04;57.69;100833.84;4959992;28;20045;-52
2022/05/18 02:49:28;;;;;;;1.33;1.23;;;;;;;26.05;57.92;100832.78;4974446;28;20125;-52
2022/05/18 02:52:12;;;;;;;1.55;1.45;;;;;;;26.03;57.92;100833.00;4974618;28;20057;-52
2022/05/18 02:57:59;;;;;;;1.42;1.33;;;;;;;26.02;58.00;100838.72;4974496;28;20538;-52
2022/05/18 03:00:43;;;;;;;1.58;1.48;;;;;;;26.01;57.89;100843.31;4959948;28;20550;-50
2022/05/18 03:03:27;;;;;;;;;;;;;;;25.96;58.23;100839.63;4959999;28;20097;-50
2022/05/18 03:06:13;;;;;;;;;;;;;;;25.94;58.19;100844.50;4974918;28;19929;-51
2022/05/18 03:08:57;;;;;;;1.42;1.33;;;;;;;25.97;58.41;100849.47;4974528;28;20057;-54
2022/05/18 03:11:41;;;;;;;1.67;1.50;;;;;;;25.98;58.11;100848.41;4974478;28;20470;-51
2022/05/18 03:14:25;;;;;;;;;;;;;;;25.92;58.29;100841.16;4974612;28;20054;-49
2022/05/18 03:17:08;;;;;;;2.33;1.48;;;;;;;25.95;58.28;100852.44;4974494;28;19990;-49
2022/05/18 03:19:52;;;;;;;;;;;;;;;25.91;58.24;100855.84;4974587;28;20137;-50
2022/05/18 03:25:40;;;;;;;1.63;1.50;;;;;;;25.93;58.16;100854.56;4977981;28;20431;-50
2022/05/18 03:28:24;;;;;;;1.60;1.50;;;;;;;25.94;58.24;100855.41;4978118;28;20549;-52
2022/05/18 03:31:08;;;;;;;;;;;;;;;25.87;58.25;100866.44;4978518;28;20526;-50
2022/05/18 03:33:55;;;;;;;1.58;1.48;;;;;;;25.91;58.32;100867.63;4977633;28;19925;-50
2022/05/18 03:36:38;;;;;;;3.03;1.50;;;;;;;25.91;58.45;100873.09;4963344;28;20179;-52
2022/05/18 03:39:23;;;;;;;1.20;1.13;;;;;;;25.91;58.21;100861.31;4977944;28;20053;-51
2022/05/18 03:42:07;;;;;;;1.63;1.50;;;;;;;25.90;58.23;100865.97;4977549;28;20133;-53
2022/05/18 03:44:51;;;;;;;1.35;1.25;;;;;;;25.89;58.26;100874.38;4977589;28;20066;-54
2022/05/18 03:47:35;;;;;;;;;;;;;;;25.84;58.22;100872.28;4977913;28;20102;-49
2022/05/18 03:50:19;;;;;;;1.60;1.50;;;;;;;25.87;58.33;100876.50;4977698;28;19968;-50
2022/05/18 03:53:03;;;;;;;;;;;;;;;25.82;58.27;100879.06;4977759;28;20068;-50
2022/05/18 03:55:47;;;;;;;1.85;1.40;;;;;;;25.86;58.26;100875.69;4962829;28;19921;-52
2022/05/18 03:58:31;;;;;;;1.83;1.65;;;;;;;25.87;58.29;100881.97;4977567;28;20053;-51
2022/05/18 04:01:15;;;;;;;2.42;1.38;;;;;;;25.86;58.15;100880.28;4977312;28;20073;-52
2022/05/18 04:03:58;;;;;;;;;;;;;;;25.80;58.22;100882.03;4977586;28;20102;-50
2022/05/18 04:06:42;;;;;;;1.77;1.67;;;;;;;25.83;58.23;100887.03;4977343;28;19969;-54
2022/05/18 04:09:26;;;;;;;1.20;1.20;;;;;;;25.85;58.25;100878.59;4962531;28;20467;-52
2022/05/18 04:12:10;;;;;;;;;;;;;;;25.80;58.27;100892.09;4977409;28;20189;-51
2022/05/18 04:14:54;;;;;;;1.58;1.48;;;;;;;25.82;58.30;100879.88;4977301;28;20052;-51
2022/05/18 04:17:38;;;;;;;1.67;1.38;;;;;;;25.83;58.21;100891.66;4976965;28;20046;-54
2022/05/18 04:20:23;;;;;;;1.63;1.52;;;;;;;25.83;58.18;100892.47;4977232;28;20097;-51
2022/05/18 04:23:08;;;;;;;1.42;1.33;;;;;;;25.85;58.31;100892.25;4977063;28;20506;-50
2022/05/18 04:25:52;;;;;;;1.75;1.50;;;;;;;25.84;58.32;100893.34;4977009;28;20458;-51
2022/05/18 04:28:36;;;;;;;1.70;1.60;;;;;;;25.85;58.21;100898.53;4962367;28;20049;-52
2022/05/18 04:31:20;;;;;;;1.70;1.60;;;;;;;25.85;58.25;100895.00;4976778;28;20049;-49
2022/05/18 04:34:04;;;;;;;1.60;1.50;;;;;;;25.84;58.19;100910.53;4974277;28;20057;-52
2022/05/18 04:36:48;;;;;;;1.50;1.40;;;;;;;25.83;58.30;100911.59;4975589;28;20410;-53
2022/05/18 04:39:32;;;;;;;;;;;;;;;25.80;58.38;100916.69;4975986;28;20045;-53
2022/05/18 04:42:16;;;;;;;2.58;1.70;;;;;;;25.82;58.25;100915.41;4975484;28;19961;-51
2022/05/18 04:44:59;;;;;;;1.67;1.58;;;;;;;25.84;58.24;100920.66;4975500;28;20466;-49
2022/05/18 04:47:43;;;;;;;;;;;;;;;25.79;58.12;100923.22;4976044;28;20053;-52
2022/05/18 04:50:27;;;;;;;1.98;1.73;;;;;;;25.82;58.31;100914.59;4975667;28;19920;-51
2022/05/18 04:53:11;;;;;;;;;;;;;;;25.79;58.17;100928.69;4975771;28;20466;-50
2022/05/18 04:55:55;;;;;;;1.83;1.52;;;;;;;25.82;58.13;100931.78;4975622;28;20289;-50
2022/05/18 04:58:39;;;;;;;;;;;;;;;25.79;58.17;100934.13;4961303;28;20049;-49
2022/05/18 05:01:25;;;;;;;1.80;1.70;;;;;;;25.83;58.18;100929.91;4975509;28;19945;-51
2022/05/18 05:04:09;;;;;;;1.33;1.20;;;;;;;25.85;58.04;100933.25;4975438;28;20154;-50
2022/05/18 05:06:53;;;;;;;1.83;1.48;;;;;;;25.85;58.06;100935.97;4975304;28;20070;-53
2022/05/18 05:09:37;;;;;;;;;;;;;;;25.79;58.12;100940.44;4975511;28;20142;-50
2022/05/18 05:12:21;;;;;;;2.03;1.60;;;;;;;25.82;58.05;100942.72;4975210;28;19964;-51
2022/05/18 05:15:05;;;;;;;;;;;;;;;25.81;58.17;100948.41;4975667;28;20069;-51
2022/05/18 05:17:49;;;;;;;2.00;1.70;;;;;;;25.85;57.87;100952.38;4974988;28;19921;-51
2022/05/18 05:20:33;;;;;;;1.70;1.60;;;;;;;25.86;58.08;100952.19;4974907;28;20044;-50
2022/05/18 05:23:20;;;;;;;1.63;1.52;;;;;;;25.86;58.05;100959.50;4975240;28;20097;-51
2022/05/18 05:26:04;;;;;;;1.60;1.50;;;;;;;25.87;57.85;100953.00;4960329;28;20184;-51
2022/05/18 05:28:48;;;;;;;1.58;1.48;;;;;;;25.88;57.91;100954.66;4974811;28;20521;-52
2022/05/18 05:31:32;;;;;;;;;;;;;;;25.83;58.07;100946.31;4960813;28;20053;-50
2022/05/18 05:34:21;;;;;;;1.48;1.38;;;;;;;25.87;57.77;100953.84;5070639;28;20372;-49
2022/05/18 05:37:05;;;;;;;1.42;1.33;;;;;;;25.89;57.80;100956.34;5070693;28;20044;-51
2022/05/18 05:39:49;;;;;;;;;;;;;;;25.85;57.73;100955.09;5069961;28;20051;-49
2022/05/18 05:42:33;;;;;;;1.67;1.58;;;;;;;25.88;57.66;100960.13;5062353;28;19991;-49
2022/05/18 05:45:17;;;;;;;;;;;;;;;25.85;57.72;100963.28;5052155;28;20468;-54
2022/05/18 05:48:01;;;;;;;1.80;1.70;;;;;;;25.88;57.61;100960.97;5050659;28;19960;-58
2022/05/18 05:50:44;;;;;;;1.60;1.50;;;;;;;25.91;57.63;100956.94;5049337;28;20051;-58
2022/05/18 05:53:28;;;;;;;2.00;1.65;;;;;;;25.92;57.48;100966.84;5050180;28;20106;-57
2022/05/18 05:56:15;;;;;;;1.60;1.50;;;;;;;25.92;57.39;100967.66;5050535;28;20048;-58
2022/05/18 05:58:59;;;;;;;2.08;1.70;;;;;;;25.92;57.31;100962.19;5050102;28;20100;-56
2022/05/18 06:01:42;;;;;;;2.20;1.40;;;;;;;25.92;57.40;100967.66;5050001;28;20103;-58
2022/05/18 06:04:28;;;;;;;;;;;;;;;25.88;57.32;100971.91;5050747;28;20039;-59
2022/05/18 06:07:13;;;;;;;1.67;1.58;;;;;;;25.93;57.40;100973.97;5050566;28;20427;-57
2022/05/18 06:09:56;;;;;;;;;;;;;;;25.89;57.31;100972.72;5050415;28;20094;-57
2022/05/18 06:12:41;;;;;;;1.73;1.63;;;;;;;25.92;57.47;100973.13;5049964;28;20427;-54
2022/05/18 06:15:24;;;;;;;1.60;1.50;;;;;;;25.94;57.04;100975.63;5049851;28;20058;-59
2022/05/18 06:18:08;;;;;;;;;;;;;;;25.89;57.37;100980.91;5050276;28;20056;-56
2022/05/18 06:20:53;;;;;;;2.92;1.50;;;;;;;25.93;57.00;100977.50;5049103;28;20012;-58
2022/05/18 06:23:37;;;;;;;2.45;1.60;;;;;;;25.95;57.10;100982.75;5049726;28;20531;-59
2022/05/18 06:26:21;;;;;;;;;;;;;;;25.91;57.22;100982.38;5050101;28;20055;-57
2022/05/18 06:29:05;;;;;;;1.80;1.63;;;;;;;25.94;57.15;100984.66;5048928;28;19966;-56
2022/05/18 06:31:50;;;;;;;1.90;1.58;;;;;;;25.97;56.95;100980.63;5049781;28;20075;-56
2022/05/18 06:34:35;;;;;;;2.05;1.45;;;;;;;25.97;56.98;100980.63;5048838;28;20044;-59
2022/05/18 06:37:19;;;;;;;1.95;1.65;;;;;;;25.96;56.97;100979.81;5049508;28;20052;-54
2022/05/18 06:40:03;;;;;;;;;;;;;;;25.94;56.91;100986.56;5050098;28;20048;-57
2022/05/18 06:42:47;;;;;;;;;;;;;;;25.92;57.02;100986.78;5049743;28;19963;-57
2022/05/18 06:45:31;;;;;;;1.50;1.40;;;;;;;25.97;57.09;100986.09;5037296;28;19962;-52
2022/05/18 06:48:15;;;;;;;1.60;1.50;;;;;;;25.98;56.89;100979.56;5036291;28;20103;-55
2022/05/18 06:50:59;;;;;;;;;;;;;;;25.94;56.96;100986.56;5035622;28;20107;-56
2022/05/18 06:53:43;;;;;;;1.50;1.40;;;;;;;25.99;57.07;100983.97;5035851;28;19919;-56
2022/05/18 06:56:28;;;;;;;;;;;;;;;25.96;57.06;100976.22;5036537;28;20057;-54
2022/05/18 06:59:13;;;;;;;1.77;1.67;;;;;;;26.00;56.92;100977.44;5036091;28;20323;-57
2022/05/18 07:01:57;;;;;;;2.05;1.50;;;;;;;26.00;57.08;100977.44;5035673;28;20508;-55
2022/05/18 07:04:41;;;;;;;1.60;1.50;;;;;;;26.01;57.03;100979.94;5035947;28;20072;-57
2022/05/18 07:07:25;;;;;;;1.60;1.50;;;;;;;26.01;56.77;100977.22;5035197;28;20522;-57
2022/05/18 07:10:09;;;;;;;2.83;1.48;;;;;;;26.03;56.77;100979.75;5034742;28;20094;-59
2022/05/18 07:12:53;;;;;;;2.33;1.75;;;;;;;26.03;56.79;100983.28;5034774;28;20045;-58
2022/05/18 07:15:37;;;;;;;1.77;1.67;;;;;;;26.04;56.73;100982.22;5035762;28;20125;-56
2022/05/18 07:18:21;;;;;;;;;;;;;;;25.99;56.79;100984.81;5035970;28;20049;-58
2022/05/18 07:21:06;;;;;;;1.88;1.77;;;;;;;26.04;56.75;100975.94;5035429;28;19940;-56
2022/05/18 07:23:50;;;;;;;2.30;1.75;;;;;;;26.03;56.85;100969.63;5035794;28;20099;-58
2022/05/18 07:26:34;;;;;;;;;;;;;;;26.00;56.74;100980.16;5035808;28;20056;-57
2022/05/18 07:29:18;;;;;;;1.80;1.65;;;;;;;26.03;56.89;100980.56;5034283;28;19936;-57
2022/05/18 07:32:09;;;;;;;1.63;1.52;;;;;;;26.06;56.69;100979.28;5035117;28;20080;-56
2022/05/18 07:34:53;;;;;;;1.40;1.30;;;;;;;26.05;56.82;100977.59;5035224;28;20139;-56
2022/05/18 07:37:37;;;;;;;;;;;;;;;26.02;56.88;100986.28;5035410;28;20052;-55
2022/05/18 07:40:21;;;;;;;1.60;1.50;;;;;;;26.05;56.69;100992.09;5035317;28;19920;-58
2022/05/18 07:43:04;;;;;;;;;;;;;;;26.01;56.76;100988.16;5035295;28;20056;-54
2022/05/18 07:45:50;;;;;;;3.08;1.58;;;;;;;26.05;56.66;100989.34;5035198;28;19967;-58
2022/05/18 07:48:35;;;;;;;2.10;1.70;;;;;;;26.08;56.70;100993.53;5034460;28;20592;-54
2022/05/18 07:51:19;;;;;;;1.83;1.67;;;;;;;26.07;56.57;100992.72;5034708;28;20048;-55
2022/05/18 07:54:03;;;;;;;2.03;1.70;;;;;;;26.07;56.70;100992.72;5034539;28;20064;-57
2022/05/18 07:56:47;;;;;;;1.40;1.30;;;;;;;26.09;56.81;100989.75;5033924;28;20187;-54
2022/05/18 07:59:31;;;;;;;;;;;;;;;26.04;56.69;100998.63;5035312;28;20051;-55
2022/05/18 08:02:15;;;;;;;1.73;1.63;;;;;;;26.08;56.61;100999.00;5034478;28;19920;-59
2022/05/18 08:04:59;;;;;;;;;;;;;;;26.05;56.62;100994.81;5035145;28;20528;-56
2022/05/18 08:07:45;;;;;;;1.67;1.58;;;;;;;26.08;56.71;100999.00;5034964;28;19955;-56
2022/05/18 08:16:35;;;;;;;1.60;1.50;;;;;;;26.10;56.76;100989.53;5033793;28;20520;-58
2022/05/18 08:19:19;;;;;;;1.83;1.50;;;;;;;26.11;56.63;100990.34;5034278;28;20053;-54
2022/05/18 08:22:03;;;;;;;2.13;1.80;;;;;;;26.12;56.85;100995.59;5034143;28;20092;-58
2022/05/18 08:24:47;;;;;;;1.80;1.70;;;;;;;26.12;56.77;101001.06;5034149;28;20099;-58
2022/05/18 08:27:31;;;;;;;;;;;;;;;26.08;56.78;100994.38;5034680;28;20535;-56
2022/05/18 08:30:19;;;;;;;1.55;1.45;;;;;;;26.13;56.65;100996.44;5034596;28;19919;-56
2022/05/18 08:33:03;;;;;;;2.88;1.40;;;;;;;26.15;56.82;100994.31;5033730;28;20052;-56
2022/05/18 08:35:48;;;;;;;1.55;1.45;;;;;;;26.15;56.90;100988.84;5033886;28;20048;-56
2022/05/18 08:38:33;;;;;;;2.00;1.60;;;;;;;26.17;56.61;100997.66;5033937;28;20143;-57
2022/05/18 08:41:28;;;;;;;1.60;1.50;;;;;;;26.17;56.76;100995.75;5034047;28;20103;-55
2022/05/18 08:44:28;;;;;;;1.77;1.67;;;;;;;26.17;56.46;100987.56;5032812;28;20048;-57
2022/05/18 08:47:40;;;;;;;1.88;1.60;;;;;;;26.17;56.64;100984.81;5033733;28;20421;-55
2022/05/18 08:50:24;;;;;;;1.70;1.50;;;;;;;26.16;56.48;100991.31;5033967;28;20171;-57
2022/05/18 08:53:38;;;;;;;2.00;1.80;;;;;;;26.18;56.77;100988.38;5033479;28;20045;-56
2022/05/18 08:56:26;;;;;;;1.63;1.52;;;;;;;26.19;56.40;100981.84;5033002;28;20053;-57
2022/05/18 08:59:15;;;;;;;1.80;1.65;;;;;;;26.20;56.43;100978.91;5018972;28;20072;-53
2022/05/18 09:02:00;;;;;;;1.70;1.60;;;;;;;26.20;56.66;100973.44;5032452;28;20076;-56
2022/05/18 09:04:51;;;;;;;1.60;1.50;;;;;;;26.21;56.61;100976.97;5032497;28;20559;-59
2022/05/18 09:07:43;;;;;;;1.80;1.70;;;;;;;26.21;56.37;100974.25;5033456;28;20128;-59
2022/05/18 09:10:39;;;;;;;1.70;1.60;;;;;;;26.22;56.36;100973.19;5032521;28;20044;-58
2022/05/18 09:13:23;;;;;;;2.08;1.77;;;;;;;26.21;56.46;100974.25;5032492;28;20064;-59
2022/05/18 09:16:14;;;;;;;1.48;1.38;;;;;;;26.22;56.48;100981.38;5033814;28;20115;-54
2022/05/18 09:19:20;;;;;;;1.60;1.50;;;;;;;26.24;56.30;100976.53;5033390;28;20084;-57
2022/05/18 09:22:13;;;;;;;1.90;1.55;;;;;;;26.23;56.46;100977.63;5032452;28;20064;-58
2022/05/18 09:25:13;;;;;;;1.60;1.50;;;;;;;26.26;56.36;100977.16;5033241;28;20045;-59
2022/05/18 09:28:08;;;;;;;1.58;1.48;;;;;;;26.27;56.22;100965.16;5033406;28;20099;-57
2022/05/18 09:31:14;;;;;;;1.52;1.42;;;;;;;26.26;56.40;100969.75;5032482;28;20509;-57
2022/05/18 09:34:04;;;;;;;1.75;1.52;;;;;;;26.26;56.40;100974.41;5032919;28;20066;-57
2022/05/18 09:37:07;;;;;;;1.75;1.65;;;;;;;26.29;56.33;100972.06;5033269;28;20098;-56
2022/05/18 09:40:12;;;;;;;1.67;1.58;;;;;;;26.29;56.27;100974.78;5033602;28;20071;-57
2022/05/18 09:43:36;;;;;;;1.67;1.58;;;;;;;26.29;56.39;100969.31;5033252;28;20056;-59
2022/05/18 09:46:24;;;;;;;2.15;1.90;;;;;;;26.30;56.34;100964.69;5032092;28;20044;-59
2022/05/18 09:49:26;;;;;;;1.80;1.70;;;;;;;26.32;56.30;100965.28;5033335;28;20064;-59
2022/05/18 09:52:11;;;;;;;1.70;1.60;;;;;;;26.31;56.39;100960.88;5032809;28;20099;-59
2022/05/18 09:54:59;;;;;;;1.60;1.50;;;;;;;26.32;56.02;100957.91;5032938;28;20104;-57
2022/05/18 09:58:14;;;;;;;1.70;1.60;;;;;;;26.34;56.11;100960.44;5032308;28;20052;-58
2022/05/18 10:10:13;;;;;;;2.15;1.73;;;;;;;26.36;56.04;100947.38;5033311;28;20068;-58
2022/05/18 10:13:02;;;;;;;1.98;1.48;;;;;;;26.39;55.88;100949.63;5032633;28;20052;-58
2022/05/18 10:15:49;;;;;;;1.70;1.60;;;;;;;26.40;56.12;100943.09;5033316;28;20421;-59
2022/05/18 10:19:00;;;;;;;1.80;1.70;;;;;;;26.39;56.00;100939.53;5031793;28;20053;-59
2022/05/18 10:21:51;;;;;;;1.58;1.48;;;;;;;26.41;55.72;100934.66;5035534;28;20040;-58
2022/05/18 10:24:47;;;;;;;1.70;1.60;;;;;;;26.44;55.98;100938.84;5035474;28;20091;-58
2022/05/18 10:27:36;;;;;;;1.83;1.60;;;;;;;26.43;55.65;100931.72;5035724;28;20048;-59
2022/05/18 10:30:32;;;;;;;1.42;1.33;;;;;;;26.44;55.87;100931.47;5021679;28;20500;-56
2022/05/18 10:33:31;;;;;;;1.85;1.75;;;;;;;26.47;55.55;100935.66;5035116;28;20134;-57
2022/05/18 10:36:23;;;;;;;1.60;1.50;;;;;;;26.48;55.84;100931.84;5036409;28;20159;-57
2022/05/18 10:39:07;;;;;;;1.65;1.55;;;;;;;26.48;55.62;100931.84;5036148;28;20460;-58
2022/05/18 10:41:51;;;;;;;;;;;;;;;26.44;55.65;100927.91;5035510;28;20115;-57
2022/05/18 10:44:36;;;;;;;1.80;1.70;;;;;;;26.49;55.51;100922.56;5036083;28;20408;-55
2022/05/18 10:47:26;;;;;;;1.80;1.45;;;;;;;26.51;55.61;100924.06;5035059;28;20099;-55
2022/05/18 10:50:25;;;;;;;2.22;1.60;;;;;;;26.52;55.52;100913.94;5036232;28;20131;-59
2022/05/18 10:53:12;;;;;;;1.73;1.58;;;;;;;26.54;55.49;100914.56;5035791;28;20092;-57
2022/05/18 10:55:56;;;;;;;1.55;1.45;;;;;;;26.54;55.35;100912.63;5036142;28;20099;-59
2022/05/18 10:58:42;;;;;;;;;;;;;;;26.51;55.61;100898.59;5036540;28;20099;-59
2022/05/18 11:01:31;;;;;;;1.42;1.33;;;;;;;26.56;55.37;100898.75;5036007;28;19971;-57
2022/05/18 11:04:36;;;;;;;2.00;1.67;;;;;;;26.58;55.46;100891.13;5034731;28;20421;-58
2022/05/18 11:07:22;;;;;;;1.63;1.52;;;;;;;26.59;55.27;100884.59;5035738;28;20048;-57
2022/05/18 11:10:07;;;;;;;1.92;1.73;;;;;;;26.60;55.19;100889.00;5034881;28;20103;-57
2022/05/18 11:13:22;;;;;;;1.60;1.45;;;;;;;26.61;55.03;100872.38;5034859;28;20456;-58
2022/05/18 11:16:20;;;;;;;1.58;1.45;;;;;;;26.64;55.09;100879.28;5028706;28;20056;-58
2022/05/18 11:19:35;;;;;;;1.55;1.45;;;;;;;26.67;54.99;100871.41;5035756;28;20076;-58
2022/05/18 11:22:25;;;;;;;1.70;1.60;;;;;;;26.68;54.90;100866.78;5035622;28;20053;-58
2022/05/18 11:25:28;;;;;;;1.70;1.60;;;;;;;26.70;54.87;100878.31;5035567;28;20052;-56
2022/05/18 11:28:42;;;;;;;1.80;1.70;;;;;;;26.72;54.71;100862.50;5035512;28;20052;-55
2022/05/18 11:31:33;;;;;;;;;;;;;;;26.70;55.01;100861.91;5035574;28;20524;-55
2022/05/18 11:34:22;;;;;;;1.60;1.50;;;;;;;26.75;54.73;100862.88;5034970;28;19971;-58
2022/05/18 11:37:36;;;;;;;1.50;1.40;;;;;;;26.79;54.81;100864.09;5034126;28;20064;-57
2022/05/18 11:40:32;;;;;;;1.92;1.83;;;;;;;26.84;54.52;100866.13;5035355;28;20048;-58
2022/05/18 11:43:25;;;;;;;2.13;1.90;;;;;;;26.87;54.56;100869.19;5035199;28;20068;-53
2022/05/18 11:46:40;;;;;;;1.65;1.52;;;;;;;26.89;54.39;100861.63;5036148;28;20044;-55
2022/05/18 11:49:33;;;;;;;1.95;1.70;;;;;;;26.93;54.33;100857.31;5034887;28;20079;-59
2022/05/18 11:52:55;;;;;;;1.60;1.50;;;;;;;26.96;53.95;100848.63;5034630;28;20048;-55
2022/05/18 11:55:51;;;;;;;1.67;1.58;;;;;;;26.98;53.74;100855.53;5035054;28;20595;-58
2022/05/18 11:58:53;;;;;;;1.70;1.60;;;;;;;27.03;53.81;100855.69;5034953;28;20051;-58
2022/05/18 12:01:46;;;;;;;1.92;1.83;;;;;;;27.05;53.83;100850.78;5035187;28;20121;-53
2022/05/18 12:04:45;;;;;;;1.70;1.60;;;;;;;27.10;53.64;100845.44;5033627;28;20076;-56
2022/05/18 12:07:44;;;;;;;1.85;1.63;;;;;;;27.14;53.42;100849.41;5033878;28;20467;-55
2022/05/18 12:10:45;;;;;;;1.75;1.52;;;;;;;27.19;53.35;100846.78;5033568;28;20103;-49
2022/05/18 12:13:38;;;;;;;1.85;1.73;;;;;;;27.21;52.95;100844.63;5033571;28;20040;-50
2022/05/18 12:16:25;;;;;;;1.77;1.67;;;;;;;27.25;52.94;100850.47;5034664;28;20148;-52
2022/05/18 12:19:29;;;;;;;1.58;1.48;;;;;;;27.29;52.65;100841.53;5034333;28;20623;-54
2022/05/18 12:22:26;;;;;;;2.10;1.60;;;;;;;27.32;52.84;100846.53;5033503;28;20531;-52
2022/05/18 12:25:13;;;;;;;1.73;1.50;;;;;;;27.37;52.49;100843.06;5033764;28;20099;-51
2022/05/18 12:28:00;;;;;;;1.73;1.63;;;;;;;27.41;52.48;100834.13;5019149;28;20522;-52
2022/05/18 12:30:45;;;;;;;2.25;1.90;;;;;;;27.44;52.39;100822.72;5033080;28;20129;-51
2022/05/18 12:33:34;;;;;;;1.70;1.50;;;;;;;27.49;52.28;100836.53;5032744;28;20127;-52
2022/05/18 12:36:32;;;;;;;1.92;1.77;;;;;;;27.53;51.80;100825.91;5034260;28;20147;-49
2022/05/18 12:39:33;;;;;;;1.75;1.65;;;;;;;27.56;51.59;100826.28;5034215;28;20048;-49
2022/05/18 12:42:27;;;;;;;1.45;1.35;;;;;;;27.59;51.62;100825.78;5033258;28;20045;-49
2022/05/18 12:45:26;;;;;;;2.00;1.80;;;;;;;27.61;51.72;100829.09;5033136;28;20064;-49
2022/05/18 12:48:18;;;;;;;2.45;1.70;;;;;;;27.65;51.51;100824.84;5034067;28;20425;-50
2022/05/18 12:51:39;;;;;;;1.70;1.60;;;;;;;27.70;51.30;100826.81;5032755;28;20048;-50
2022/05/18 12:54:31;;;;;;;1.63;1.52;;;;;;;27.73;51.17;100829.94;5031669;28;20056;-50
2022/05/18 12:57:37;;;;;;;1.40;1.30;;;;;;;27.75;51.13;100827.81;5032918;28;20504;-52
2022/05/18 13:00:46;;;;;;;2.15;1.63;;;;;;;27.79;50.77;100814.44;5033600;28;20401;-49
2022/05/18 13:04:01;;;;;;;1.75;1.65;;;;;;;27.84;50.78;100825.53;5032564;28;20086;-50
2022/05/18 13:06:47;;;;;;;1.63;1.52;;;;;;;27.86;50.87;100816.00;5033813;28;20520;-50
2022/05/18 13:09:34;;;;;;;2.08;1.50;;;;;;;27.91;50.85;100801.56;5033765;28;20052;-52
2022/05/18 13:12:30;;;;;;;1.67;1.55;;;;;;;27.95;50.39;100814.50;5033662;28;20131;-49
2022/05/18 13:15:24;;;;;;;2.17;1.60;;;;;;;27.98;50.53;100808.56;5033411;28;20102;-49
2022/05/18 13:18:12;;;;;;;1.75;1.65;;;;;;;28.00;50.18;100795.44;5033350;28;20092;-49
2022/05/18 13:21:05;;;;;;;1.70;1.60;;;;;;;28.06;49.96;100799.09;5033233;28;20051;-51
2022/05/18 13:23:52;;;;;;;1.70;1.60;;;;;;;28.08;49.87;100786.81;5033464;28;20524;-49
2022/05/18 13:26:40;;;;;;;1.65;1.55;;;;;;;28.12;49.79;100787.97;5033216;28;20417;-50
2022/05/18 13:29:28;;;;;;;1.58;1.48;;;;;;;28.15;49.93;100792.16;5032796;28;20504;-51
2022/05/18 13:32:15;;;;;;;2.15;1.50;;;;;;;28.18;49.91;100778.78;5031934;28;20129;-49
2022/05/18 13:35:01;;;;;;;1.50;1.40;;;;;;;28.21;49.80;100778.28;5033408;28;20132;-49
2022/05/18 13:38:12;;;;;;;1.77;1.67;;;;;;;28.24;49.40;100772.31;5032139;28;20567;-50